sensor_id;sensor_type;location;lat;lon;timestamp;P1;durP1;ratioP1;P2;durP2;ratioP2
78148;SDS011;67396;42.664;23.382;2023-03-01T00:01:49;2.85;;;2.03;;
78148;SDS011;67396;42.664;23.382;2023-03-01T00:04:15;4.72;;;2.13;;
78148;SDS011;67396;42.664;23.382;2023-03-01T00:06:42;3.03;;;2.20;;
78148;SDS011;67396;42.664;23.382;2023-03-01T00:09:11;3.42;;;2.83;;
78148;SDS011;67396;42.664;23.382;2023-03-01T00:11:37;2.53;;;1.98;;
78148;SDS011;67396;42.664;23.382;2023-03-01T00:14:02;2.47;;;1.83;;
78148;SDS011;67396;42.664;23.382;2023-03-01T00:16:41;3.35;;;2.42;;
78148;SDS011;67396;42.664;23.382;2023-03-01T00:19:12;2.13;;;1.48;;
78148;SDS011;67396;42.664;23.382;2023-03-01T00:21:39;2.30;;;1.67;;
78148;SDS011;67396;42.664;23.382;2023-03-01T00:24:05;3.55;;;2.72;;
78148;SDS011;67396;42.664;23.382;2023-03-01T00:26:31;2.22;;;1.70;;
78148;SDS011;67396;42.664;23.382;2023-03-01T00:28:57;3.22;;;1.90;;
78148;SDS011;67396;42.664;23.382;2023-03-01T00:31:24;1.77;;;1.55;;
78148;SDS011;67396;42.664;23.382;2023-03-01T00:33:53;2.58;;;2.17;;
78148;SDS011;67396;42.664;23.382;2023-03-01T00:36:22;2.53;;;1.88;;
78148;SDS011;67396;42.664;23.382;2023-03-01T00:38:51;2.33;;;1.90;;
78148;SDS011;67396;42.664;23.382;2023-03-01T00:41:17;1.88;;;1.40;;
78148;SDS011;67396;42.664;23.382;2023-03-01T00:43:44;2.70;;;2.40;;
78148;SDS011;67396;42.664;23.382;2023-03-01T00:46:11;2.97;;;2.25;;
78148;SDS011;67396;42.664;23.382;2023-03-01T00:48:38;3.40;;;2.20;;
78148;SDS011;67396;42.664;23.382;2023-03-01T00:51:07;1.73;;;1.58;;
78148;SDS011;67396;42.664;23.382;2023-03-01T00:53:44;2.40;;;2.03;;
78148;SDS011;67396;42.664;23.382;2023-03-01T00:56:11;2.08;;;1.50;;
78148;SDS011;67396;42.664;23.382;2023-03-01T00:58:37;3.67;;;2.20;;
78148;SDS011;67396;42.664;23.382;2023-03-01T01:01:13;2.65;;;1.77;;
78148;SDS011;67396;42.664;23.382;2023-03-01T01:03:47;2.47;;;2.08;;
78148;SDS011;67396;42.664;23.382;2023-03-01T01:06:15;1.35;;;1.10;;
78148;SDS011;67396;42.664;23.382;2023-03-01T01:08:45;3.05;;;1.67;;
78148;SDS011;67396;42.664;23.382;2023-03-01T01:11:11;1.20;;;0.90;;
78148;SDS011;67396;42.664;23.382;2023-03-01T01:13:38;2.80;;;1.60;;
78148;SDS011;67396;42.664;23.382;2023-03-01T01:16:04;3.50;;;2.42;;
78148;SDS011;67396;42.664;23.382;2023-03-01T01:18:30;2.38;;;1.58;;
78148;SDS011;67396;42.664;23.382;2023-03-01T01:20:55;1.90;;;1.42;;
78148;SDS011;67396;42.664;23.382;2023-03-01T01:23:21;1.75;;;1.33;;
78148;SDS011;67396;42.664;23.382;2023-03-01T01:25:46;1.92;;;1.40;;
78148;SDS011;67396;42.664;23.382;2023-03-01T01:28:12;1.48;;;1.23;;
78148;SDS011;67396;42.664;23.382;2023-03-01T01:30:37;1.58;;;1.30;;
78148;SDS011;67396;42.664;23.382;2023-03-01T01:33:03;1.80;;;1.50;;
78148;SDS011;67396;42.664;23.382;2023-03-01T01:35:28;2.30;;;1.33;;
78148;SDS011;67396;42.664;23.382;2023-03-01T01:37:53;2.38;;;1.27;;
78148;SDS011;67396;42.664;23.382;2023-03-01T01:40:19;2.10;;;1.50;;
78148;SDS011;67396;42.664;23.382;2023-03-01T01:42:45;1.60;;;1.38;;
78148;SDS011;67396;42.664;23.382;2023-03-01T01:45:27;2.20;;;1.60;;
78148;SDS011;67396;42.664;23.382;2023-03-01T01:47:59;1.40;;;1.30;;
78148;SDS011;67396;42.664;23.382;2023-03-01T01:50:35;1.58;;;1.40;;
78148;SDS011;67396;42.664;23.382;2023-03-01T01:53:07;1.80;;;1.40;;
78148;SDS011;67396;42.664;23.382;2023-03-01T01:55:38;1.88;;;1.23;;
78148;SDS011;67396;42.664;23.382;2023-03-01T01:58:07;1.40;;;1.30;;
78148;SDS011;67396;42.664;23.382;2023-03-01T02:00:36;0.95;;;0.80;;
78148;SDS011;67396;42.664;23.382;2023-03-01T02:03:12;1.40;;;0.80;;
78148;SDS011;67396;42.664;23.382;2023-03-01T02:05:50;1.23;;;1.00;;
78148;SDS011;67396;42.664;23.382;2023-03-01T02:08:37;1.98;;;1.77;;
78148;SDS011;67396;42.664;23.382;2023-03-01T02:11:06;1.25;;;1.15;;
78148;SDS011;67396;42.664;23.382;2023-03-01T02:13:32;1.50;;;1.35;;
78148;SDS011;67396;42.664;23.382;2023-03-01T02:16:01;1.33;;;1.00;;
78148;SDS011;67396;42.664;23.382;2023-03-01T02:18:28;1.30;;;1.20;;
78148;SDS011;67396;42.664;23.382;2023-03-01T02:21:15;1.77;;;1.67;;
78148;SDS011;67396;42.664;23.382;2023-03-01T02:23:53;1.67;;;1.40;;
78148;SDS011;67396;42.664;23.382;2023-03-01T02:26:23;1.77;;;1.58;;
78148;SDS011;67396;42.664;23.382;2023-03-01T02:29:05;1.92;;;1.20;;
78148;SDS011;67396;42.664;23.382;2023-03-01T02:31:31;1.33;;;1.13;;
78148;SDS011;67396;42.664;23.382;2023-03-01T02:34:13;1.70;;;1.40;;
78148;SDS011;67396;42.664;23.382;2023-03-01T02:36:49;1.60;;;1.30;;
78148;SDS011;67396;42.664;23.382;2023-03-01T02:39:23;1.48;;;1.20;;
78148;SDS011;67396;42.664;23.382;2023-03-01T02:42:07;1.55;;;1.33;;
78148;SDS011;67396;42.664;23.382;2023-03-01T02:44:36;2.22;;;2.03;;
78148;SDS011;67396;42.664;23.382;2023-03-01T02:47:02;3.10;;;2.47;;
78148;SDS011;67396;42.664;23.382;2023-03-01T02:49:29;2.38;;;1.80;;
78148;SDS011;67396;42.664;23.382;2023-03-01T02:52:08;1.88;;;1.65;;
78148;SDS011;67396;42.664;23.382;2023-03-01T02:54:41;1.83;;;1.35;;
78148;SDS011;67396;42.664;23.382;2023-03-01T02:57:12;1.70;;;1.40;;
78148;SDS011;67396;42.664;23.382;2023-03-01T02:59:39;1.40;;;1.27;;
78148;SDS011;67396;42.664;23.382;2023-03-01T03:02:06;1.95;;;1.40;;
78148;SDS011;67396;42.664;23.382;2023-03-01T03:04:32;4.47;;;2.08;;
78148;SDS011;67396;42.664;23.382;2023-03-01T03:06:58;1.55;;;1.40;;
78148;SDS011;67396;42.664;23.382;2023-03-01T03:09:23;2.30;;;1.75;;
78148;SDS011;67396;42.664;23.382;2023-03-01T03:11:49;2.08;;;1.67;;
78148;SDS011;67396;42.664;23.382;2023-03-01T03:14:15;2.38;;;1.63;;
78148;SDS011;67396;42.664;23.382;2023-03-01T03:16:43;2.22;;;1.85;;
78148;SDS011;67396;42.664;23.382;2023-03-01T03:19:10;3.30;;;1.73;;
78148;SDS011;67396;42.664;23.382;2023-03-01T03:21:37;1.58;;;1.27;;
78148;SDS011;67396;42.664;23.382;2023-03-01T03:24:02;2.08;;;1.85;;
78148;SDS011;67396;42.664;23.382;2023-03-01T03:26:28;1.77;;;1.48;;
78148;SDS011;67396;42.664;23.382;2023-03-01T03:28:54;2.75;;;1.92;;
78148;SDS011;67396;42.664;23.382;2023-03-01T03:31:20;2.25;;;1.35;;
78148;SDS011;67396;42.664;23.382;2023-03-01T03:33:46;1.83;;;1.10;;
78148;SDS011;67396;42.664;23.382;2023-03-01T03:36:15;6.57;;;1.20;;
78148;SDS011;67396;42.664;23.382;2023-03-01T03:38:42;2.00;;;1.70;;
78148;SDS011;67396;42.664;23.382;2023-03-01T03:41:08;2.78;;;2.45;;
78148;SDS011;67396;42.664;23.382;2023-03-01T03:43:35;5.18;;;3.33;;
78148;SDS011;67396;42.664;23.382;2023-03-01T03:46:02;3.90;;;3.03;;
78148;SDS011;67396;42.664;23.382;2023-03-01T03:48:32;3.00;;;1.52;;
78148;SDS011;67396;42.664;23.382;2023-03-01T03:50:59;12.65;;;1.50;;
78148;SDS011;67396;42.664;23.382;2023-03-01T03:53:25;3.22;;;2.10;;
78148;SDS011;67396;42.664;23.382;2023-03-01T03:55:52;3.47;;;2.70;;
78148;SDS011;67396;42.664;23.382;2023-03-01T03:58:18;3.47;;;2.33;;
78148;SDS011;67396;42.664;23.382;2023-03-01T04:00:46;2.72;;;1.73;;
78148;SDS011;67396;42.664;23.382;2023-03-01T04:03:13;11.25;;;2.97;;
78148;SDS011;67396;42.664;23.382;2023-03-01T04:05:40;3.38;;;2.20;;
78148;SDS011;67396;42.664;23.382;2023-03-01T04:08:06;3.38;;;2.15;;
78148;SDS011;67396;42.664;23.382;2023-03-01T04:10:33;1.45;;;1.23;;
78148;SDS011;67396;42.664;23.382;2023-03-01T04:13:07;3.05;;;2.05;;
78148;SDS011;67396;42.664;23.382;2023-03-01T04:15:35;2.03;;;1.67;;
78148;SDS011;67396;42.664;23.382;2023-03-01T04:18:01;3.58;;;1.95;;
78148;SDS011;67396;42.664;23.382;2023-03-01T04:20:28;2.05;;;1.80;;
78148;SDS011;67396;42.664;23.382;2023-03-01T04:23:09;2.75;;;2.17;;
78148;SDS011;67396;42.664;23.382;2023-03-01T04:28:26;2.08;;;1.58;;
78148;SDS011;67396;42.664;23.382;2023-03-01T04:30:54;1.95;;;1.75;;
78148;SDS011;67396;42.664;23.382;2023-03-01T04:33:22;2.65;;;1.83;;
78148;SDS011;67396;42.664;23.382;2023-03-01T04:35:49;2.85;;;2.17;;
78148;SDS011;67396;42.664;23.382;2023-03-01T04:38:15;2.55;;;1.35;;
78148;SDS011;67396;42.664;23.382;2023-03-01T04:40:41;1.90;;;1.65;;
78148;SDS011;67396;42.664;23.382;2023-03-01T04:43:08;2.53;;;1.80;;
78148;SDS011;67396;42.664;23.382;2023-03-01T04:45:35;2.60;;;2.08;;
78148;SDS011;67396;42.664;23.382;2023-03-01T04:48:00;3.15;;;1.95;;
78148;SDS011;67396;42.664;23.382;2023-03-01T04:50:26;2.72;;;2.08;;
78148;SDS011;67396;42.664;23.382;2023-03-01T04:52:52;3.95;;;2.42;;
78148;SDS011;67396;42.664;23.382;2023-03-01T04:55:18;2.40;;;1.83;;
78148;SDS011;67396;42.664;23.382;2023-03-01T04:57:43;1.75;;;1.20;;
78148;SDS011;67396;42.664;23.382;2023-03-01T05:00:10;2.38;;;1.60;;
78148;SDS011;67396;42.664;23.382;2023-03-01T05:05:18;2.00;;;1.60;;
78148;SDS011;67396;42.664;23.382;2023-03-01T05:07:46;1.77;;;1.60;;
78148;SDS011;67396;42.664;23.382;2023-03-01T05:10:12;2.63;;;2.03;;
78148;SDS011;67396;42.664;23.382;2023-03-01T05:12:37;2.25;;;1.70;;
78148;SDS011;67396;42.664;23.382;2023-03-01T05:15:03;2.17;;;1.48;;
78148;SDS011;67396;42.664;23.382;2023-03-01T05:17:32;1.90;;;1.17;;
78148;SDS011;67396;42.664;23.382;2023-03-01T05:19:59;1.23;;;0.82;;
78148;SDS011;67396;42.664;23.382;2023-03-01T05:22:24;1.25;;;1.15;;
78148;SDS011;67396;42.664;23.382;2023-03-01T05:24:50;2.05;;;1.60;;
78148;SDS011;67396;42.664;23.382;2023-03-01T05:27:15;3.10;;;1.63;;
78148;SDS011;67396;42.664;23.382;2023-03-01T05:29:41;1.65;;;1.27;;
78148;SDS011;67396;42.664;23.382;2023-03-01T05:32:06;2.33;;;1.48;;
78148;SDS011;67396;42.664;23.382;2023-03-01T05:34:36;2.58;;;1.80;;
78148;SDS011;67396;42.664;23.382;2023-03-01T05:37:02;2.35;;;1.70;;
78148;SDS011;67396;42.664;23.382;2023-03-01T05:39:28;2.42;;;1.83;;
78148;SDS011;67396;42.664;23.382;2023-03-01T05:41:58;2.60;;;1.98;;
78148;SDS011;67396;42.664;23.382;2023-03-01T05:44:25;2.60;;;2.28;;
78148;SDS011;67396;42.664;23.382;2023-03-01T05:46:51;2.70;;;2.25;;
78148;SDS011;67396;42.664;23.382;2023-03-01T05:49:17;3.35;;;2.63;;
78148;SDS011;67396;42.664;23.382;2023-03-01T05:51:45;3.40;;;2.33;;
78148;SDS011;67396;42.664;23.382;2023-03-01T05:54:13;3.38;;;2.65;;
78148;SDS011;67396;42.664;23.382;2023-03-01T05:56:39;4.65;;;3.63;;
78148;SDS011;67396;42.664;23.382;2023-03-01T05:59:05;7.30;;;4.15;;
78148;SDS011;67396;42.664;23.382;2023-03-01T06:01:31;6.15;;;3.13;;
78148;SDS011;67396;42.664;23.382;2023-03-01T06:03:58;5.82;;;3.63;;
78148;SDS011;67396;42.664;23.382;2023-03-01T06:06:24;5.30;;;3.90;;
78148;SDS011;67396;42.664;23.382;2023-03-01T06:08:50;3.88;;;3.15;;
78148;SDS011;67396;42.664;23.382;2023-03-01T06:11:19;7.10;;;3.33;;
78148;SDS011;67396;42.664;23.382;2023-03-01T06:13:45;4.88;;;3.30;;
78148;SDS011;67396;42.664;23.382;2023-03-01T06:16:11;5.68;;;2.53;;
78148;SDS011;67396;42.664;23.382;2023-03-01T06:18:38;4.32;;;2.47;;
78148;SDS011;67396;42.664;23.382;2023-03-01T06:21:04;4.53;;;2.85;;
78148;SDS011;67396;42.664;23.382;2023-03-01T06:23:30;3.13;;;1.77;;
78148;SDS011;67396;42.664;23.382;2023-03-01T06:25:56;2.50;;;1.92;;
78148;SDS011;67396;42.664;23.382;2023-03-01T06:28:21;3.47;;;2.00;;
78148;SDS011;67396;42.664;23.382;2023-03-01T06:30:47;2.70;;;1.52;;
78148;SDS011;67396;42.664;23.382;2023-03-01T06:33:13;2.95;;;1.88;;
78148;SDS011;67396;42.664;23.382;2023-03-01T06:35:38;2.83;;;1.75;;
78148;SDS011;67396;42.664;23.382;2023-03-01T06:38:04;2.15;;;1.83;;
78148;SDS011;67396;42.664;23.382;2023-03-01T06:40:30;2.22;;;1.20;;
78148;SDS011;67396;42.664;23.382;2023-03-01T06:42:57;3.20;;;2.15;;
78148;SDS011;67396;42.664;23.382;2023-03-01T06:45:23;2.60;;;1.95;;
78148;SDS011;67396;42.664;23.382;2023-03-01T06:47:50;3.13;;;2.08;;
78148;SDS011;67396;42.664;23.382;2023-03-01T06:50:26;2.42;;;2.20;;
78148;SDS011;67396;42.664;23.382;2023-03-01T06:52:55;5.05;;;2.70;;
78148;SDS011;67396;42.664;23.382;2023-03-01T06:55:21;3.45;;;2.70;;
78148;SDS011;67396;42.664;23.382;2023-03-01T06:57:46;2.30;;;1.92;;
78148;SDS011;67396;42.664;23.382;2023-03-01T07:00:12;2.88;;;1.55;;
78148;SDS011;67396;42.664;23.382;2023-03-01T07:02:38;3.55;;;1.55;;
78148;SDS011;67396;42.664;23.382;2023-03-01T07:05:03;2.45;;;1.50;;
78148;SDS011;67396;42.664;23.382;2023-03-01T07:07:29;3.80;;;1.67;;
78148;SDS011;67396;42.664;23.382;2023-03-01T07:09:54;6.13;;;2.15;;
78148;SDS011;67396;42.664;23.382;2023-03-01T07:12:20;3.70;;;2.17;;
78148;SDS011;67396;42.664;23.382;2023-03-01T07:14:48;2.55;;;2.10;;
78148;SDS011;67396;42.664;23.382;2023-03-01T07:17:14;3.28;;;2.13;;
78148;SDS011;67396;42.664;23.382;2023-03-01T07:19:39;4.90;;;2.28;;
78148;SDS011;67396;42.664;23.382;2023-03-01T07:22:05;5.82;;;2.60;;
78148;SDS011;67396;42.664;23.382;2023-03-01T07:24:32;4.80;;;2.60;;
78148;SDS011;67396;42.664;23.382;2023-03-01T07:26:58;5.53;;;2.92;;
78148;SDS011;67396;42.664;23.382;2023-03-01T07:29:24;3.58;;;2.78;;
78148;SDS011;67396;42.664;23.382;2023-03-01T07:31:49;3.50;;;2.20;;
78148;SDS011;67396;42.664;23.382;2023-03-01T07:34:14;5.10;;;2.08;;
78148;SDS011;67396;42.664;23.382;2023-03-01T07:36:40;3.30;;;2.25;;
78148;SDS011;67396;42.664;23.382;2023-03-01T07:39:08;2.83;;;2.40;;
78148;SDS011;67396;42.664;23.382;2023-03-01T07:41:34;5.78;;;1.95;;
78148;SDS011;67396;42.664;23.382;2023-03-01T07:44:00;2.15;;;1.63;;
78148;SDS011;67396;42.664;23.382;2023-03-01T07:46:25;2.47;;;1.90;;
78148;SDS011;67396;42.664;23.382;2023-03-01T07:48:50;4.00;;;2.00;;
78148;SDS011;67396;42.664;23.382;2023-03-01T07:51:16;1.35;;;1.23;;
78148;SDS011;67396;42.664;23.382;2023-03-01T07:53:41;6.03;;;1.77;;
78148;SDS011;67396;42.664;23.382;2023-03-01T07:56:08;3.13;;;1.90;;
78148;SDS011;67396;42.664;23.382;2023-03-01T07:58:35;2.45;;;1.20;;
78148;SDS011;67396;42.664;23.382;2023-03-01T08:01:02;1.90;;;1.42;;
78148;SDS011;67396;42.664;23.382;2023-03-01T08:03:28;4.32;;;1.27;;
78148;SDS011;67396;42.664;23.382;2023-03-01T08:05:54;8.85;;;1.70;;
78148;SDS011;67396;42.664;23.382;2023-03-01T08:08:19;2.92;;;1.13;;
78148;SDS011;67396;42.664;23.382;2023-03-01T08:10:45;3.13;;;1.30;;
78148;SDS011;67396;42.664;23.382;2023-03-01T08:13:10;1.30;;;1.15;;
78148;SDS011;67396;42.664;23.382;2023-03-01T08:15:36;1.33;;;1.05;;
78148;SDS011;67396;42.664;23.382;2023-03-01T08:18:01;2.20;;;1.65;;
78148;SDS011;67396;42.664;23.382;2023-03-01T08:20:27;2.00;;;0.98;;
78148;SDS011;67396;42.664;23.382;2023-03-01T08:22:52;1.25;;;1.13;;
78148;SDS011;67396;42.664;23.382;2023-03-01T08:25:18;1.83;;;1.65;;
78148;SDS011;67396;42.664;23.382;2023-03-01T08:27:43;1.02;;;0.93;;
78148;SDS011;67396;42.664;23.382;2023-03-01T08:30:09;1.45;;;1.33;;
78148;SDS011;67396;42.664;23.382;2023-03-01T08:32:35;1.85;;;1.50;;
78148;SDS011;67396;42.664;23.382;2023-03-01T08:35:02;1.42;;;1.33;;
78148;SDS011;67396;42.664;23.382;2023-03-01T08:37:31;1.80;;;1.65;;
78148;SDS011;67396;42.664;23.382;2023-03-01T08:39:58;3.35;;;1.60;;
78148;SDS011;67396;42.664;23.382;2023-03-01T08:42:25;2.17;;;1.90;;
78148;SDS011;67396;42.664;23.382;2023-03-01T08:44:50;3.45;;;2.05;;
78148;SDS011;67396;42.664;23.382;2023-03-01T08:47:16;3.38;;;2.30;;
78148;SDS011;67396;42.664;23.382;2023-03-01T08:49:41;7.68;;;2.17;;
78148;SDS011;67396;42.664;23.382;2023-03-01T08:52:07;3.50;;;2.20;;
78148;SDS011;67396;42.664;23.382;2023-03-01T08:54:32;1.75;;;1.65;;
78148;SDS011;67396;42.664;23.382;2023-03-01T08:56:57;2.13;;;1.85;;
78148;SDS011;67396;42.664;23.382;2023-03-01T08:59:24;1.80;;;1.70;;
78148;SDS011;67396;42.664;23.382;2023-03-01T09:01:50;3.20;;;1.85;;
78148;SDS011;67396;42.664;23.382;2023-03-01T09:04:16;2.08;;;1.80;;
78148;SDS011;67396;42.664;23.382;2023-03-01T09:06:41;1.83;;;1.40;;
78148;SDS011;67396;42.664;23.382;2023-03-01T09:09:11;1.33;;;1.08;;
78148;SDS011;67396;42.664;23.382;2023-03-01T09:11:40;1.80;;;1.33;;
78148;SDS011;67396;42.664;23.382;2023-03-01T09:14:05;1.30;;;1.00;;
78148;SDS011;67396;42.664;23.382;2023-03-01T09:16:31;2.00;;;1.17;;
78148;SDS011;67396;42.664;23.382;2023-03-01T09:19:00;1.40;;;0.98;;
78148;SDS011;67396;42.664;23.382;2023-03-01T09:21:27;2.65;;;1.25;;
78148;SDS011;67396;42.664;23.382;2023-03-01T09:23:52;1.58;;;1.25;;
78148;SDS011;67396;42.664;23.382;2023-03-01T09:26:19;1.50;;;0.93;;
78148;SDS011;67396;42.664;23.382;2023-03-01T09:28:47;0.80;;;0.60;;
78148;SDS011;67396;42.664;23.382;2023-03-01T09:31:14;2.38;;;0.90;;
78148;SDS011;67396;42.664;23.382;2023-03-01T09:33:41;1.58;;;0.80;;
78148;SDS011;67396;42.664;23.382;2023-03-01T09:36:10;2.20;;;1.00;;
78148;SDS011;67396;42.664;23.382;2023-03-01T09:38:38;0.68;;;0.68;;
78148;SDS011;67396;42.664;23.382;2023-03-01T09:41:09;0.90;;;0.90;;
78148;SDS011;67396;42.664;23.382;2023-03-01T09:43:46;1.17;;;1.00;;
78148;SDS011;67396;42.664;23.382;2023-03-01T09:46:19;0.82;;;0.75;;
78148;SDS011;67396;42.664;23.382;2023-03-01T09:48:51;1.80;;;0.90;;
78148;SDS011;67396;42.664;23.382;2023-03-01T09:51:29;1.10;;;0.80;;
78148;SDS011;67396;42.664;23.382;2023-03-01T09:53:57;2.47;;;1.02;;
78148;SDS011;67396;42.664;23.382;2023-03-01T09:56:37;1.77;;;1.25;;
78148;SDS011;67396;42.664;23.382;2023-03-01T09:59:11;1.02;;;0.70;;
78148;SDS011;67396;42.664;23.382;2023-03-01T10:10:14;0.93;;;0.73;;
78148;SDS011;67396;42.664;23.382;2023-03-01T10:12:53;0.98;;;0.70;;
78148;SDS011;67396;42.664;23.382;2023-03-01T10:15:22;1.55;;;1.02;;
78148;SDS011;67396;42.664;23.382;2023-03-01T10:18:11;1.30;;;1.10;;
78148;SDS011;67396;42.664;23.382;2023-03-01T10:20:44;1.20;;;0.85;;
78148;SDS011;67396;42.664;23.382;2023-03-01T10:23:22;5.15;;;0.90;;
78148;SDS011;67396;42.664;23.382;2023-03-01T10:31:24;2.03;;;1.27;;
78148;SDS011;67396;42.664;23.382;2023-03-01T10:34:11;1.52;;;1.27;;
78148;SDS011;67396;42.664;23.382;2023-03-01T10:36:39;2.97;;;1.48;;
78148;SDS011;67396;42.664;23.382;2023-03-01T10:39:11;1.40;;;0.93;;
78148;SDS011;67396;42.664;23.382;2023-03-01T10:44:50;0.88;;;0.63;;
78148;SDS011;67396;42.664;23.382;2023-03-01T10:47:23;3.35;;;1.25;;
78148;SDS011;67396;42.664;23.382;2023-03-01T10:49:55;1.98;;;1.13;;
78148;SDS011;67396;42.664;23.382;2023-03-01T10:52:32;2.38;;;1.30;;
78148;SDS011;67396;42.664;23.382;2023-03-01T10:58:05;2.47;;;1.42;;
78148;SDS011;67396;42.664;23.382;2023-03-01T11:03:19;1.45;;;1.20;;
78148;SDS011;67396;42.664;23.382;2023-03-01T11:06:19;2.65;;;1.60;;
78148;SDS011;67396;42.664;23.382;2023-03-01T11:08:47;2.67;;;1.70;;
78148;SDS011;67396;42.664;23.382;2023-03-01T11:11:18;4.13;;;1.17;;
78148;SDS011;67396;42.664;23.382;2023-03-01T11:13:50;1.15;;;1.05;;
78148;SDS011;67396;42.664;23.382;2023-03-01T11:16:17;2.00;;;1.40;;
78148;SDS011;67396;42.664;23.382;2023-03-01T11:19:04;1.63;;;1.25;;
78148;SDS011;67396;42.664;23.382;2023-03-01T11:21:44;1.42;;;1.13;;
78148;SDS011;67396;42.664;23.382;2023-03-01T11:24:18;1.75;;;1.33;;
78148;SDS011;67396;42.664;23.382;2023-03-01T11:26:45;2.08;;;1.10;;
78148;SDS011;67396;42.664;23.382;2023-03-01T11:29:26;1.60;;;1.35;;
78148;SDS011;67396;42.664;23.382;2023-03-01T11:31:58;2.50;;;1.50;;
78148;SDS011;67396;42.664;23.382;2023-03-01T11:34:43;3.25;;;1.75;;
78148;SDS011;67396;42.664;23.382;2023-03-01T11:37:13;2.05;;;1.42;;
78148;SDS011;67396;42.664;23.382;2023-03-01T11:39:51;2.45;;;1.40;;
78148;SDS011;67396;42.664;23.382;2023-03-01T11:45:11;2.97;;;1.73;;
78148;SDS011;67396;42.664;23.382;2023-03-01T11:47:58;2.88;;;2.03;;
78148;SDS011;67396;42.664;23.382;2023-03-01T11:50:49;2.83;;;1.83;;
78148;SDS011;67396;42.664;23.382;2023-03-01T11:58:40;2.55;;;2.20;;
78148;SDS011;67396;42.664;23.382;2023-03-01T12:10:27;2.15;;;1.83;;
78148;SDS011;67396;42.664;23.382;2023-03-01T12:26:59;2.97;;;2.35;;
78148;SDS011;67396;42.664;23.382;2023-03-01T12:29:42;3.55;;;2.67;;
78148;SDS011;67396;42.664;23.382;2023-03-01T12:35:11;3.30;;;2.20;;
78148;SDS011;67396;42.664;23.382;2023-03-01T12:37:54;3.28;;;1.80;;
78148;SDS011;67396;42.664;23.382;2023-03-01T12:43:41;2.50;;;2.30;;
78148;SDS011;67396;42.664;23.382;2023-03-01T12:48:49;2.35;;;2.13;;
78148;SDS011;67396;42.664;23.382;2023-03-01T12:51:20;2.72;;;2.13;;
78148;SDS011;67396;42.664;23.382;2023-03-01T12:53:50;4.13;;;2.80;;
78148;SDS011;67396;42.664;23.382;2023-03-01T12:56:21;1.90;;;1.52;;
78148;SDS011;67396;42.664;23.382;2023-03-01T13:08:07;3.30;;;2.60;;
78148;SDS011;67396;42.664;23.382;2023-03-01T13:15:36;9.63;;;2.53;;
78148;SDS011;67396;42.664;23.382;2023-03-01T13:25:33;4.03;;;2.65;;
78148;SDS011;67396;42.664;23.382;2023-03-01T13:28:32;2.85;;;2.53;;
78148;SDS011;67396;42.664;23.382;2023-03-01T13:30:57;4.82;;;2.78;;
78148;SDS011;67396;42.664;23.382;2023-03-01T13:35:48;3.20;;;2.22;;
78148;SDS011;67396;42.664;23.382;2023-03-01T13:46:49;8.15;;;2.70;;
78148;SDS011;67396;42.664;23.382;2023-03-01T13:49:25;4.65;;;2.45;;
78148;SDS011;67396;42.664;23.382;2023-03-01T13:51:53;4.65;;;2.13;;
78148;SDS011;67396;42.664;23.382;2023-03-01T13:54:26;2.10;;;1.65;;
78148;SDS011;67396;42.664;23.382;2023-03-01T13:56:55;2.20;;;1.92;;
78148;SDS011;67396;42.664;23.382;2023-03-01T13:59:23;3.38;;;2.63;;
78148;SDS011;67396;42.664;23.382;2023-03-01T14:01:52;2.90;;;2.00;;
78148;SDS011;67396;42.664;23.382;2023-03-01T14:04:23;2.92;;;2.50;;
78148;SDS011;67396;42.664;23.382;2023-03-01T14:06:48;3.35;;;2.55;;
78148;SDS011;67396;42.664;23.382;2023-03-01T14:17:36;5.75;;;1.85;;
78148;SDS011;67396;42.664;23.382;2023-03-01T14:20:09;4.03;;;1.83;;
78148;SDS011;67396;42.664;23.382;2023-03-01T14:22:40;2.28;;;1.77;;
78148;SDS011;67396;42.664;23.382;2023-03-01T14:27:56;4.20;;;1.77;;
78148;SDS011;67396;42.664;23.382;2023-03-01T14:30:25;4.35;;;1.73;;
78148;SDS011;67396;42.664;23.382;2023-03-01T14:33:00;2.00;;;1.05;;
78148;SDS011;67396;42.664;23.382;2023-03-01T14:35:29;3.90;;;1.85;;
78148;SDS011;67396;42.664;23.382;2023-03-01T14:37:56;3.55;;;1.88;;
78148;SDS011;67396;42.664;23.382;2023-03-01T14:40:24;2.67;;;1.40;;
78148;SDS011;67396;42.664;23.382;2023-03-01T14:42:58;2.30;;;1.77;;
78148;SDS011;67396;42.664;23.382;2023-03-01T14:45:26;3.42;;;1.65;;
78148;SDS011;67396;42.664;23.382;2023-03-01T14:47:54;2.28;;;1.40;;
78148;SDS011;67396;42.664;23.382;2023-03-01T14:52:58;3.08;;;1.52;;
78148;SDS011;67396;42.664;23.382;2023-03-01T14:55:29;1.50;;;1.02;;
78148;SDS011;67396;42.664;23.382;2023-03-01T14:57:58;3.00;;;1.33;;
78148;SDS011;67396;42.664;23.382;2023-03-01T15:00:25;2.50;;;1.60;;
78148;SDS011;67396;42.664;23.382;2023-03-01T15:02:53;4.43;;;1.90;;
78148;SDS011;67396;42.664;23.382;2023-03-01T15:05:30;2.10;;;1.65;;
78148;SDS011;67396;42.664;23.382;2023-03-01T15:07:58;3.47;;;1.80;;
78148;SDS011;67396;42.664;23.382;2023-03-01T15:10:27;4.90;;;1.27;;
78148;SDS011;67396;42.664;23.382;2023-03-01T15:12:54;1.38;;;1.17;;
78148;SDS011;67396;42.664;23.382;2023-03-01T15:18:04;1.90;;;1.48;;
78148;SDS011;67396;42.664;23.382;2023-03-01T15:20:40;1.98;;;1.38;;
78148;SDS011;67396;42.664;23.382;2023-03-01T15:23:05;3.50;;;2.33;;
78148;SDS011;67396;42.664;23.382;2023-03-01T15:25:31;2.42;;;1.30;;
78148;SDS011;67396;42.664;23.382;2023-03-01T15:27:58;3.83;;;2.17;;
78148;SDS011;67396;42.664;23.382;2023-03-01T15:30:26;2.88;;;1.85;;
78148;SDS011;67396;42.664;23.382;2023-03-01T15:33:19;3.33;;;2.40;;
78148;SDS011;67396;42.664;23.382;2023-03-01T15:35:54;3.70;;;2.00;;
78148;SDS011;67396;42.664;23.382;2023-03-01T15:40:53;2.25;;;1.35;;
78148;SDS011;67396;42.664;23.382;2023-03-01T15:43:38;1.83;;;1.20;;
78148;SDS011;67396;42.664;23.382;2023-03-01T15:46:04;4.15;;;2.00;;
78148;SDS011;67396;42.664;23.382;2023-03-01T15:48:29;2.33;;;1.60;;
78148;SDS011;67396;42.664;23.382;2023-03-01T15:50:56;4.88;;;1.83;;
78148;SDS011;67396;42.664;23.382;2023-03-01T15:53:23;1.88;;;1.08;;
78148;SDS011;67396;42.664;23.382;2023-03-01T15:55:51;1.38;;;1.17;;
78148;SDS011;67396;42.664;23.382;2023-03-01T15:58:18;3.53;;;1.88;;
78148;SDS011;67396;42.664;23.382;2023-03-01T16:00:47;2.47;;;1.75;;
78148;SDS011;67396;42.664;23.382;2023-03-01T16:03:16;1.70;;;1.30;;
78148;SDS011;67396;42.664;23.382;2023-03-01T16:05:46;4.95;;;1.38;;
78148;SDS011;67396;42.664;23.382;2023-03-01T16:08:13;1.88;;;1.50;;
78148;SDS011;67396;42.664;23.382;2023-03-01T16:10:39;2.00;;;1.50;;
78148;SDS011;67396;42.664;23.382;2023-03-01T16:13:06;2.63;;;1.67;;
78148;SDS011;67396;42.664;23.382;2023-03-01T16:15:33;2.97;;;1.60;;
78148;SDS011;67396;42.664;23.382;2023-03-01T16:18:02;2.22;;;1.17;;
78148;SDS011;67396;42.664;23.382;2023-03-01T16:20:32;2.70;;;1.42;;
78148;SDS011;67396;42.664;23.382;2023-03-01T16:23:02;2.97;;;1.40;;
78148;SDS011;67396;42.664;23.382;2023-03-01T16:25:30;2.80;;;1.52;;
78148;SDS011;67396;42.664;23.382;2023-03-01T16:27:57;3.10;;;1.55;;
78148;SDS011;67396;42.664;23.382;2023-03-01T16:30:25;2.75;;;1.40;;
78148;SDS011;67396;42.664;23.382;2023-03-01T16:32:50;2.50;;;1.85;;
78148;SDS011;67396;42.664;23.382;2023-03-01T16:35:17;3.97;;;1.42;;
78148;SDS011;67396;42.664;23.382;2023-03-01T16:37:45;5.10;;;1.27;;
78148;SDS011;67396;42.664;23.382;2023-03-01T16:40:16;3.35;;;1.92;;
78148;SDS011;67396;42.664;23.382;2023-03-01T16:42:49;2.92;;;1.50;;
78148;SDS011;67396;42.664;23.382;2023-03-01T16:45:15;2.25;;;1.40;;